sensor_id;sensor_type;location;lat;lon;timestamp;P1;durP1;ratioP1;P2;durP2;ratioP2
23632;SDS011;11993;48.748;9.166;2023-08-30T00:00:17;9.90;;;8.45;;
23632;SDS011;11993;48.748;9.166;2023-08-30T00:02:46;7.35;;;6.30;;
23632;SDS011;11993;48.748;9.166;2023-08-30T00:05:11;9.90;;;6.00;;
23632;SDS011;11993;48.748;9.166;2023-08-30T00:07:38;7.05;;;6.35;;
23632;SDS011;11993;48.748;9.166;2023-08-30T00:10:03;9.00;;;7.13;;
23632;SDS011;11993;48.748;9.166;2023-08-30T00:12:29;6.70;;;6.10;;
23632;SDS011;11993;48.748;9.166;2023-08-30T00:14:55;11.68;;;7.35;;
23632;SDS011;11993;48.748;9.166;2023-08-30T00:17:21;8.00;;;7.20;;
23632;SDS011;11993;48.748;9.166;2023-08-30T00:19:47;7.43;;;6.72;;
23632;SDS011;11993;48.748;9.166;2023-08-30T00:22:13;8.68;;;6.90;;
23632;SDS011;11993;48.748;9.166;2023-08-30T00:24:39;8.48;;;6.80;;
23632;SDS011;11993;48.748;9.166;2023-08-30T00:27:04;8.75;;;7.72;;
23632;SDS011;11993;48.748;9.166;2023-08-30T00:29:30;7.70;;;6.88;;
23632;SDS011;11993;48.748;9.166;2023-08-30T00:31:57;7.20;;;6.50;;
23632;SDS011;11993;48.748;9.166;2023-08-30T00:34:22;9.15;;;7.32;;
23632;SDS011;11993;48.748;9.166;2023-08-30T00:36:48;7.90;;;6.55;;
23632;SDS011;11993;48.748;9.166;2023-08-30T00:39:13;10.65;;;8.00;;
23632;SDS011;11993;48.748;9.166;2023-08-30T00:41:39;9.57;;;7.88;;
23632;SDS011;11993;48.748;9.166;2023-08-30T00:44:05;10.68;;;7.55;;
23632;SDS011;11993;48.748;9.166;2023-08-30T00:46:31;16.40;;;11.57;;
23632;SDS011;11993;48.748;9.166;2023-08-30T00:48:58;17.10;;;13.70;;
23632;SDS011;11993;48.748;9.166;2023-08-30T00:51:25;8.93;;;8.02;;
23632;SDS011;11993;48.748;9.166;2023-08-30T00:53:51;8.95;;;8.15;;
23632;SDS011;11993;48.748;9.166;2023-08-30T00:56:16;10.20;;;9.20;;
23632;SDS011;11993;48.748;9.166;2023-08-30T00:58:43;9.07;;;8.23;;
23632;SDS011;11993;48.748;9.166;2023-08-30T01:01:09;9.35;;;8.55;;
23632;SDS011;11993;48.748;9.166;2023-08-30T01:03:34;9.63;;;7.80;;
23632;SDS011;11993;48.748;9.166;2023-08-30T01:06:00;8.98;;;8.07;;
23632;SDS011;11993;48.748;9.166;2023-08-30T01:08:26;15.68;;;11.45;;
23632;SDS011;11993;48.748;9.166;2023-08-30T01:11:16;11.50;;;8.55;;
23632;SDS011;11993;48.748;9.166;2023-08-30T01:14:13;11.60;;;10.40;;
23632;SDS011;11993;48.748;9.166;2023-08-30T01:16:40;10.65;;;9.52;;
23632;SDS011;11993;48.748;9.166;2023-08-30T01:19:15;13.60;;;11.13;;
23632;SDS011;11993;48.748;9.166;2023-08-30T01:24:55;11.40;;;9.18;;
23632;SDS011;11993;48.748;9.166;2023-08-30T01:27:33;9.52;;;6.95;;
23632;SDS011;11993;48.748;9.166;2023-08-30T01:30:00;10.57;;;9.55;;
23632;SDS011;11993;48.748;9.166;2023-08-30T01:32:28;10.02;;;8.57;;
23632;SDS011;11993;48.748;9.166;2023-08-30T01:34:55;12.60;;;10.38;;
23632;SDS011;11993;48.748;9.166;2023-08-30T01:37:21;10.02;;;7.72;;
23632;SDS011;11993;48.748;9.166;2023-08-30T01:39:48;10.93;;;9.07;;
23632;SDS011;11993;48.748;9.166;2023-08-30T01:42:15;10.52;;;7.97;;
23632;SDS011;11993;48.748;9.166;2023-08-30T01:44:40;13.93;;;12.38;;
23632;SDS011;11993;48.748;9.166;2023-08-30T01:47:09;9.68;;;8.68;;
23632;SDS011;11993;48.748;9.166;2023-08-30T01:49:36;15.90;;;12.48;;
23632;SDS011;11993;48.748;9.166;2023-08-30T01:52:02;9.43;;;8.30;;
23632;SDS011;11993;48.748;9.166;2023-08-30T01:54:28;10.55;;;9.43;;
23632;SDS011;11993;48.748;9.166;2023-08-30T01:56:55;15.88;;;11.15;;
23632;SDS011;11993;48.748;9.166;2023-08-30T01:59:22;8.80;;;7.97;;
23632;SDS011;11993;48.748;9.166;2023-08-30T02:01:49;13.70;;;10.23;;
23632;SDS011;11993;48.748;9.166;2023-08-30T02:04:15;17.77;;;15.52;;
23632;SDS011;11993;48.748;9.166;2023-08-30T02:06:54;11.38;;;7.68;;
23632;SDS011;11993;48.748;9.166;2023-08-30T02:12:21;9.32;;;8.43;;
23632;SDS011;11993;48.748;9.166;2023-08-30T02:14:50;8.48;;;7.68;;
23632;SDS011;11993;48.748;9.166;2023-08-30T02:17:17;9.23;;;8.05;;
23632;SDS011;11993;48.748;9.166;2023-08-30T02:19:44;10.93;;;9.88;;
23632;SDS011;11993;48.748;9.166;2023-08-30T02:22:10;9.93;;;7.15;;
23632;SDS011;11993;48.748;9.166;2023-08-30T02:24:36;8.40;;;7.60;;
23632;SDS011;11993;48.748;9.166;2023-08-30T02:27:02;13.18;;;9.20;;
23632;SDS011;11993;48.748;9.166;2023-08-30T02:29:27;9.30;;;7.95;;
23632;SDS011;11993;48.748;9.166;2023-08-30T02:31:53;9.05;;;7.82;;
23632;SDS011;11993;48.748;9.166;2023-08-30T02:34:18;7.80;;;6.88;;
23632;SDS011;11993;48.748;9.166;2023-08-30T02:36:44;8.73;;;7.78;;
23632;SDS011;11993;48.748;9.166;2023-08-30T02:39:10;7.68;;;6.97;;
23632;SDS011;11993;48.748;9.166;2023-08-30T02:41:36;7.05;;;6.45;;
23632;SDS011;11993;48.748;9.166;2023-08-30T02:44:04;12.80;;;7.68;;
23632;SDS011;11993;48.748;9.166;2023-08-30T02:46:29;7.97;;;7.15;;
23632;SDS011;11993;48.748;9.166;2023-08-30T02:48:55;7.75;;;6.65;;
23632;SDS011;11993;48.748;9.166;2023-08-30T02:51:20;7.35;;;6.63;;
23632;SDS011;11993;48.748;9.166;2023-08-30T02:53:46;7.32;;;6.60;;
23632;SDS011;11993;48.748;9.166;2023-08-30T02:56:11;7.05;;;6.40;;
23632;SDS011;11993;48.748;9.166;2023-08-30T02:58:37;7.65;;;6.88;;
23632;SDS011;11993;48.748;9.166;2023-08-30T03:01:02;8.68;;;7.43;;
23632;SDS011;11993;48.748;9.166;2023-08-30T03:03:28;8.30;;;6.93;;
23632;SDS011;11993;48.748;9.166;2023-08-30T03:05:54;11.20;;;7.03;;
23632;SDS011;11993;48.748;9.166;2023-08-30T03:08:19;9.70;;;6.93;;
23632;SDS011;11993;48.748;9.166;2023-08-30T03:10:45;7.28;;;6.57;;
23632;SDS011;11993;48.748;9.166;2023-08-30T03:13:10;10.40;;;7.10;;
23632;SDS011;11993;48.748;9.166;2023-08-30T03:15:36;7.57;;;6.32;;
23632;SDS011;11993;48.748;9.166;2023-08-30T03:18:01;8.35;;;7.28;;
23632;SDS011;11993;48.748;9.166;2023-08-30T03:20:27;8.10;;;7.30;;
23632;SDS011;11993;48.748;9.166;2023-08-30T03:22:56;9.43;;;7.60;;
23632;SDS011;11993;48.748;9.166;2023-08-30T03:25:23;7.90;;;7.10;;
23632;SDS011;11993;48.748;9.166;2023-08-30T03:27:48;11.55;;;7.20;;
23632;SDS011;11993;48.748;9.166;2023-08-30T03:30:14;12.90;;;8.57;;
23632;SDS011;11993;48.748;9.166;2023-08-30T03:32:40;9.82;;;6.93;;
23632;SDS011;11993;48.748;9.166;2023-08-30T03:35:05;8.52;;;7.72;;
23632;SDS011;11993;48.748;9.166;2023-08-30T03:37:31;10.10;;;7.40;;
23632;SDS011;11993;48.748;9.166;2023-08-30T03:39:57;9.23;;;6.80;;
23632;SDS011;11993;48.748;9.166;2023-08-30T03:42:22;9.18;;;7.45;;
23632;SDS011;11993;48.748;9.166;2023-08-30T03:44:48;9.27;;;7.35;;
23632;SDS011;11993;48.748;9.166;2023-08-30T03:47:13;10.10;;;9.05;;
23632;SDS011;11993;48.748;9.166;2023-08-30T03:49:39;13.38;;;9.80;;
23632;SDS011;11993;48.748;9.166;2023-08-30T03:52:05;10.55;;;9.55;;
23632;SDS011;11993;48.748;9.166;2023-08-30T03:54:31;9.32;;;8.43;;
23632;SDS011;11993;48.748;9.166;2023-08-30T03:56:56;8.80;;;7.32;;
23632;SDS011;11993;48.748;9.166;2023-08-30T03:59:22;9.00;;;7.95;;
23632;SDS011;11993;48.748;9.166;2023-08-30T04:01:48;11.07;;;7.85;;
23632;SDS011;11993;48.748;9.166;2023-08-30T04:04:14;10.05;;;8.52;;
23632;SDS011;11993;48.748;9.166;2023-08-30T04:06:40;9.63;;;7.72;;
23632;SDS011;11993;48.748;9.166;2023-08-30T04:09:05;11.25;;;7.68;;
23632;SDS011;11993;48.748;9.166;2023-08-30T04:11:31;10.65;;;8.02;;
23632;SDS011;11993;48.748;9.166;2023-08-30T04:13:57;9.73;;;8.63;;
23632;SDS011;11993;48.748;9.166;2023-08-30T04:16:23;9.50;;;8.60;;
23632;SDS011;11993;48.748;9.166;2023-08-30T04:18:48;9.55;;;8.55;;
23632;SDS011;11993;48.748;9.166;2023-08-30T04:21:14;9.30;;;7.65;;
23632;SDS011;11993;48.748;9.166;2023-08-30T04:23:39;10.38;;;8.25;;
23632;SDS011;11993;48.748;9.166;2023-08-30T04:26:05;10.98;;;9.10;;
23632;SDS011;11993;48.748;9.166;2023-08-30T04:28:30;10.07;;;9.07;;
23632;SDS011;11993;48.748;9.166;2023-08-30T04:30:56;10.18;;;9.10;;
23632;SDS011;11993;48.748;9.166;2023-08-30T04:33:22;10.20;;;9.10;;
23632;SDS011;11993;48.748;9.166;2023-08-30T04:35:51;13.60;;;9.43;;
23632;SDS011;11993;48.748;9.166;2023-08-30T04:38:20;25.92;;;21.95;;
23632;SDS011;11993;48.748;9.166;2023-08-30T04:40:46;14.80;;;9.25;;
23632;SDS011;11993;48.748;9.166;2023-08-30T04:43:12;11.70;;;10.45;;
23632;SDS011;11993;48.748;9.166;2023-08-30T04:45:38;10.75;;;9.75;;
23632;SDS011;11993;48.748;9.166;2023-08-30T04:48:04;11.27;;;8.48;;
23632;SDS011;11993;48.748;9.166;2023-08-30T04:50:30;9.38;;;8.38;;
23632;SDS011;11993;48.748;9.166;2023-08-30T04:52:56;11.63;;;10.43;;
23632;SDS011;11993;48.748;9.166;2023-08-30T04:55:23;10.18;;;9.18;;
23632;SDS011;11993;48.748;9.166;2023-08-30T04:57:49;8.93;;;8.02;;
23632;SDS011;11993;48.748;9.166;2023-08-30T05:00:16;14.55;;;9.15;;
23632;SDS011;11993;48.748;9.166;2023-08-30T05:02:42;10.52;;;9.38;;
23632;SDS011;11993;48.748;9.166;2023-08-30T05:05:11;9.02;;;8.13;;
23632;SDS011;11993;48.748;9.166;2023-08-30T05:07:37;11.70;;;8.63;;
23632;SDS011;11993;48.748;9.166;2023-08-30T05:10:03;10.57;;;8.50;;
23632;SDS011;11993;48.748;9.166;2023-08-30T05:12:29;11.73;;;9.25;;
23632;SDS011;11993;48.748;9.166;2023-08-30T05:14:54;10.65;;;7.80;;
23632;SDS011;11993;48.748;9.166;2023-08-30T05:17:20;9.27;;;7.93;;
23632;SDS011;11993;48.748;9.166;2023-08-30T05:19:45;11.65;;;7.72;;
23632;SDS011;11993;48.748;9.166;2023-08-30T05:22:11;11.23;;;8.43;;
23632;SDS011;11993;48.748;9.166;2023-08-30T05:24:37;9.60;;;8.13;;
23632;SDS011;11993;48.748;9.166;2023-08-30T05:27:02;8.80;;;7.93;;
23632;SDS011;11993;48.748;9.166;2023-08-30T05:29:28;10.50;;;8.43;;
23632;SDS011;11993;48.748;9.166;2023-08-30T05:31:54;11.65;;;8.55;;
23632;SDS011;11993;48.748;9.166;2023-08-30T05:34:19;22.13;;;9.15;;
23632;SDS011;11993;48.748;9.166;2023-08-30T05:36:45;13.50;;;10.02;;
23632;SDS011;11993;48.748;9.166;2023-08-30T05:39:10;11.07;;;9.15;;
23632;SDS011;11993;48.748;9.166;2023-08-30T05:41:36;10.20;;;9.15;;
23632;SDS011;11993;48.748;9.166;2023-08-30T05:44:02;9.38;;;8.30;;
23632;SDS011;11993;48.748;9.166;2023-08-30T05:46:28;13.55;;;10.93;;
23632;SDS011;11993;48.748;9.166;2023-08-30T05:48:54;10.32;;;8.32;;
23632;SDS011;11993;48.748;9.166;2023-08-30T05:51:20;10.93;;;8.00;;
23632;SDS011;11993;48.748;9.166;2023-08-30T05:53:46;11.68;;;9.75;;
23632;SDS011;11993;48.748;9.166;2023-08-30T05:56:12;8.73;;;7.82;;
23632;SDS011;11993;48.748;9.166;2023-08-30T05:58:37;9.73;;;8.63;;
23632;SDS011;11993;48.748;9.166;2023-08-30T06:01:03;9.77;;;8.05;;
23632;SDS011;11993;48.748;9.166;2023-08-30T06:03:31;15.45;;;9.13;;
23632;SDS011;11993;48.748;9.166;2023-08-30T06:05:57;10.45;;;7.13;;
23632;SDS011;11993;48.748;9.166;2023-08-30T06:08:22;11.38;;;9.27;;
23632;SDS011;11993;48.748;9.166;2023-08-30T06:10:48;11.48;;;7.95;;
23632;SDS011;11993;48.748;9.166;2023-08-30T06:13:13;12.63;;;11.27;;
23632;SDS011;11993;48.748;9.166;2023-08-30T06:15:39;12.02;;;10.48;;
23632;SDS011;11993;48.748;9.166;2023-08-30T06:18:05;9.00;;;7.93;;
23632;SDS011;11993;48.748;9.166;2023-08-30T06:20:30;11.18;;;10.02;;
23632;SDS011;11993;48.748;9.166;2023-08-30T06:22:57;10.10;;;8.90;;
23632;SDS011;11993;48.748;9.166;2023-08-30T06:25:23;8.82;;;7.80;;
23632;SDS011;11993;48.748;9.166;2023-08-30T06:27:55;8.48;;;7.63;;
23632;SDS011;11993;48.748;9.166;2023-08-30T06:30:23;7.95;;;7.10;;
23632;SDS011;11993;48.748;9.166;2023-08-30T06:32:53;9.50;;;8.60;;
23632;SDS011;11993;48.748;9.166;2023-08-30T06:35:18;10.95;;;7.00;;
23632;SDS011;11993;48.748;9.166;2023-08-30T06:37:44;10.05;;;7.93;;
23632;SDS011;11993;48.748;9.166;2023-08-30T06:40:09;7.40;;;6.25;;
23632;SDS011;11993;48.748;9.166;2023-08-30T06:42:35;7.97;;;6.90;;
23632;SDS011;11993;48.748;9.166;2023-08-30T06:45:01;7.53;;;6.78;;
23632;SDS011;11993;48.748;9.166;2023-08-30T06:47:28;13.98;;;9.63;;
23632;SDS011;11993;48.748;9.166;2023-08-30T06:49:53;8.05;;;7.22;;
23632;SDS011;11993;48.748;9.166;2023-08-30T06:52:19;7.50;;;6.70;;
23632;SDS011;11993;48.748;9.166;2023-08-30T06:54:44;7.45;;;6.65;;
23632;SDS011;11993;48.748;9.166;2023-08-30T06:57:10;9.35;;;7.50;;
23632;SDS011;11993;48.748;9.166;2023-08-30T06:59:35;8.18;;;6.53;;
23632;SDS011;11993;48.748;9.166;2023-08-30T07:02:01;11.27;;;7.38;;
23632;SDS011;11993;48.748;9.166;2023-08-30T07:04:27;8.95;;;6.68;;
23632;SDS011;11993;48.748;9.166;2023-08-30T07:06:53;7.55;;;6.85;;
23632;SDS011;11993;48.748;9.166;2023-08-30T07:09:19;11.95;;;7.57;;
23632;SDS011;11993;48.748;9.166;2023-08-30T07:11:44;7.93;;;6.45;;
23632;SDS011;11993;48.748;9.166;2023-08-30T07:14:10;8.02;;;7.22;;
23632;SDS011;11993;48.748;9.166;2023-08-30T07:16:37;7.80;;;7.00;;
23632;SDS011;11993;48.748;9.166;2023-08-30T07:19:02;15.23;;;8.77;;
23632;SDS011;11993;48.748;9.166;2023-08-30T07:21:28;15.55;;;11.13;;
23632;SDS011;11993;48.748;9.166;2023-08-30T07:23:54;14.68;;;9.15;;
23632;SDS011;11993;48.748;9.166;2023-08-30T07:26:20;9.85;;;8.40;;
23632;SDS011;11993;48.748;9.166;2023-08-30T07:28:45;8.13;;;7.32;;
23632;SDS011;11993;48.748;9.166;2023-08-30T07:31:11;9.90;;;7.93;;
23632;SDS011;11993;48.748;9.166;2023-08-30T07:33:40;8.32;;;7.47;;
23632;SDS011;11993;48.748;9.166;2023-08-30T07:36:06;8.10;;;7.30;;
23632;SDS011;11993;48.748;9.166;2023-08-30T07:38:33;12.00;;;8.80;;
23632;SDS011;11993;48.748;9.166;2023-08-30T07:41:00;9.75;;;8.55;;
23632;SDS011;11993;48.748;9.166;2023-08-30T07:43:26;8.32;;;6.80;;
23632;SDS011;11993;48.748;9.166;2023-08-30T07:45:51;8.25;;;6.90;;
23632;SDS011;11993;48.748;9.166;2023-08-30T07:48:17;7.28;;;6.57;;
23632;SDS011;11993;48.748;9.166;2023-08-30T07:50:42;7.78;;;7.07;;
23632;SDS011;11993;48.748;9.166;2023-08-30T07:53:08;9.27;;;6.93;;
23632;SDS011;11993;48.748;9.166;2023-08-30T07:55:35;10.70;;;6.35;;
23632;SDS011;11993;48.748;9.166;2023-08-30T07:58:01;10.48;;;7.28;;
23632;SDS011;11993;48.748;9.166;2023-08-30T08:00:28;7.95;;;6.80;;
23632;SDS011;11993;48.748;9.166;2023-08-30T08:02:54;8.15;;;6.00;;
23632;SDS011;11993;48.748;9.166;2023-08-30T08:05:19;9.00;;;7.00;;
23632;SDS011;11993;48.748;9.166;2023-08-30T08:07:45;9.73;;;6.72;;
23632;SDS011;11993;48.748;9.166;2023-08-30T08:10:15;8.98;;;6.38;;
23632;SDS011;11993;48.748;9.166;2023-08-30T08:12:40;9.35;;;6.28;;
23632;SDS011;11993;48.748;9.166;2023-08-30T08:15:06;9.70;;;7.05;;
23632;SDS011;11993;48.748;9.166;2023-08-30T08:17:32;6.53;;;5.93;;
23632;SDS011;11993;48.748;9.166;2023-08-30T08:19:57;9.70;;;6.00;;
23632;SDS011;11993;48.748;9.166;2023-08-30T08:22:23;6.72;;;5.68;;
23632;SDS011;11993;48.748;9.166;2023-08-30T08:24:48;8.13;;;7.07;;
23632;SDS011;11993;48.748;9.166;2023-08-30T08:27:16;7.63;;;6.85;;
23632;SDS011;11993;48.748;9.166;2023-08-30T08:29:42;12.57;;;7.70;;
23632;SDS011;11993;48.748;9.166;2023-08-30T08:32:07;11.00;;;7.25;;
23632;SDS011;11993;48.748;9.166;2023-08-30T08:34:33;8.50;;;7.60;;
23632;SDS011;11993;48.748;9.166;2023-08-30T08:36:59;10.20;;;6.20;;
23632;SDS011;11993;48.748;9.166;2023-08-30T08:39:24;8.80;;;6.88;;
23632;SDS011;11993;48.748;9.166;2023-08-30T08:41:50;7.25;;;6.57;;
23632;SDS011;11993;48.748;9.166;2023-08-30T08:44:18;8.30;;;6.47;;
23632;SDS011;11993;48.748;9.166;2023-08-30T08:46:44;9.35;;;6.43;;
23632;SDS011;11993;48.748;9.166;2023-08-30T08:49:12;6.32;;;5.53;;
23632;SDS011;11993;48.748;9.166;2023-08-30T08:51:39;8.38;;;5.68;;
23632;SDS011;11993;48.748;9.166;2023-08-30T08:54:05;7.07;;;5.90;;
23632;SDS011;11993;48.748;9.166;2023-08-30T08:56:31;5.72;;;5.13;;
23632;SDS011;11993;48.748;9.166;2023-08-30T08:58:58;7.88;;;5.78;;
23632;SDS011;11993;48.748;9.166;2023-08-30T09:01:24;12.13;;;5.43;;
23632;SDS011;11993;48.748;9.166;2023-08-30T09:03:50;6.97;;;5.45;;
23632;SDS011;11993;48.748;9.166;2023-08-30T09:06:16;9.45;;;6.25;;
23632;SDS011;11993;48.748;9.166;2023-08-30T09:08:43;5.88;;;5.28;;
23632;SDS011;11993;48.748;9.166;2023-08-30T09:11:08;8.98;;;5.28;;
23632;SDS011;11993;48.748;9.166;2023-08-30T09:13:34;5.20;;;4.70;;
23632;SDS011;11993;48.748;9.166;2023-08-30T09:16:00;5.30;;;3.78;;
23632;SDS011;11993;48.748;9.166;2023-08-30T09:18:27;5.07;;;4.20;;
23632;SDS011;11993;48.748;9.166;2023-08-30T09:21:04;4.97;;;4.47;;
23632;SDS011;11993;48.748;9.166;2023-08-30T09:23:32;4.30;;;3.35;;
23632;SDS011;11993;48.748;9.166;2023-08-30T09:25:59;5.95;;;4.03;;
23632;SDS011;11993;48.748;9.166;2023-08-30T09:28:25;4.60;;;3.45;;
23632;SDS011;11993;48.748;9.166;2023-08-30T09:30:51;5.95;;;3.40;;
23632;SDS011;11993;48.748;9.166;2023-08-30T09:33:20;3.78;;;3.35;;
23632;SDS011;11993;48.748;9.166;2023-08-30T09:35:59;4.38;;;3.10;;
23632;SDS011;11993;48.748;9.166;2023-08-30T09:38:25;4.90;;;2.65;;
23632;SDS011;11993;48.748;9.166;2023-08-30T09:40:51;5.22;;;3.28;;
23632;SDS011;11993;48.748;9.166;2023-08-30T09:43:27;4.15;;;2.45;;
23632;SDS011;11993;48.748;9.166;2023-08-30T09:45:52;5.45;;;3.58;;
23632;SDS011;11993;48.748;9.166;2023-08-30T09:48:27;3.17;;;2.88;;
23632;SDS011;11993;48.748;9.166;2023-08-30T09:50:54;4.07;;;2.83;;
23632;SDS011;11993;48.748;9.166;2023-08-30T09:53:21;4.88;;;3.00;;
23632;SDS011;11993;48.748;9.166;2023-08-30T09:55:51;3.97;;;3.00;;
23632;SDS011;11993;48.748;9.166;2023-08-30T09:58:17;5.07;;;2.50;;
23632;SDS011;11993;48.748;9.166;2023-08-30T10:00:45;4.30;;;2.97;;
23632;SDS011;11993;48.748;9.166;2023-08-30T10:03:11;3.97;;;2.60;;
23632;SDS011;11993;48.748;9.166;2023-08-30T10:05:38;3.38;;;2.10;;
23632;SDS011;11993;48.748;9.166;2023-08-30T10:08:06;3.88;;;2.55;;
23632;SDS011;11993;48.748;9.166;2023-08-30T10:10:34;2.85;;;2.10;;
23632;SDS011;11993;48.748;9.166;2023-08-30T10:13:01;2.88;;;2.03;;
23632;SDS011;11993;48.748;9.166;2023-08-30T10:15:27;2.22;;;2.00;;
23632;SDS011;11993;48.748;9.166;2023-08-30T10:17:55;3.58;;;1.77;;
23632;SDS011;11993;48.748;9.166;2023-08-30T10:20:23;4.55;;;2.17;;
23632;SDS011;11993;48.748;9.166;2023-08-30T10:22:49;2.05;;;1.80;;
23632;SDS011;11993;48.748;9.166;2023-08-30T10:25:19;4.90;;;1.90;;
23632;SDS011;11993;48.748;9.166;2023-08-30T10:27:48;2.78;;;1.70;;
23632;SDS011;11993;48.748;9.166;2023-08-30T10:30:14;4.15;;;2.28;;
23632;SDS011;11993;48.748;9.166;2023-08-30T10:32:42;5.25;;;1.73;;
23632;SDS011;11993;48.748;9.166;2023-08-30T10:35:11;4.22;;;1.67;;
23632;SDS011;11993;48.748;9.166;2023-08-30T10:37:42;3.42;;;1.80;;
23632;SDS011;11993;48.748;9.166;2023-08-30T10:40:23;2.03;;;1.60;;
23632;SDS011;11993;48.748;9.166;2023-08-30T10:42:59;3.58;;;1.70;;
23632;SDS011;11993;48.748;9.166;2023-08-30T10:45:28;2.33;;;1.30;;
23632;SDS011;11993;48.748;9.166;2023-08-30T10:47:55;6.03;;;1.80;;
23632;SDS011;11993;48.748;9.166;2023-08-30T10:50:27;5.68;;;1.83;;
23632;SDS011;11993;48.748;9.166;2023-08-30T10:52:57;2.10;;;1.40;;
23632;SDS011;11993;48.748;9.166;2023-08-30T10:55:23;5.50;;;1.77;;
23632;SDS011;11993;48.748;9.166;2023-08-30T10:57:57;2.22;;;1.70;;
23632;SDS011;11993;48.748;9.166;2023-08-30T11:00:25;4.78;;;1.73;;
23632;SDS011;11993;48.748;9.166;2023-08-30T11:02:52;2.80;;;1.60;;
23632;SDS011;11993;48.748;9.166;2023-08-30T11:05:20;2.53;;;1.90;;
23632;SDS011;11993;48.748;9.166;2023-08-30T11:07:50;5.35;;;2.15;;
23632;SDS011;11993;48.748;9.166;2023-08-30T11:10:17;5.82;;;1.70;;
23632;SDS011;11993;48.748;9.166;2023-08-30T11:12:44;2.78;;;1.60;;
23632;SDS011;11993;48.748;9.166;2023-08-30T11:15:11;2.72;;;1.60;;
23632;SDS011;11993;48.748;9.166;2023-08-30T11:17:41;5.03;;;1.50;;
23632;SDS011;11993;48.748;9.166;2023-08-30T11:20:08;3.08;;;1.30;;
23632;SDS011;11993;48.748;9.166;2023-08-30T11:22:41;7.40;;;1.45;;
23632;SDS011;11993;48.748;9.166;2023-08-30T11:25:09;2.78;;;1.40;;
23632;SDS011;11993;48.748;9.166;2023-08-30T11:27:39;2.50;;;1.60;;
23632;SDS011;11993;48.748;9.166;2023-08-30T11:30:06;3.38;;;1.30;;
23632;SDS011;11993;48.748;9.166;2023-08-30T11:32:36;3.45;;;1.52;;
23632;SDS011;11993;48.748;9.166;2023-08-30T11:35:03;3.75;;;1.65;;
23632;SDS011;11993;48.748;9.166;2023-08-30T11:37:29;4.40;;;1.70;;
23632;SDS011;11993;48.748;9.166;2023-08-30T11:39:55;3.90;;;1.77;;
23632;SDS011;11993;48.748;9.166;2023-08-30T11:42:21;2.85;;;2.30;;
23632;SDS011;11993;48.748;9.166;2023-08-30T11:44:47;3.50;;;2.28;;
23632;SDS011;11993;48.748;9.166;2023-08-30T11:47:23;6.40;;;2.13;;
23632;SDS011;11993;48.748;9.166;2023-08-30T11:49:54;1.95;;;1.60;;
23632;SDS011;11993;48.748;9.166;2023-08-30T11:52:21;2.83;;;1.55;;
23632;SDS011;11993;48.748;9.166;2023-08-30T11:54:48;2.80;;;1.80;;
23632;SDS011;11993;48.748;9.166;2023-08-30T11:57:14;2.65;;;1.60;;
23632;SDS011;11993;48.748;9.166;2023-08-30T11:59:40;2.50;;;1.80;;
23632;SDS011;11993;48.748;9.166;2023-08-30T12:02:06;2.85;;;1.88;;
23632;SDS011;11993;48.748;9.166;2023-08-30T12:04:32;2.05;;;1.58;;
23632;SDS011;11993;48.748;9.166;2023-08-30T12:07:04;5.47;;;1.75;;
23632;SDS011;11993;48.748;9.166;2023-08-30T12:09:30;2.60;;;1.25;;
23632;SDS011;11993;48.748;9.166;2023-08-30T12:12:09;3.05;;;2.40;;
23632;SDS011;11993;48.748;9.166;2023-08-30T12:14:38;4.85;;;1.73;;
23632;SDS011;11993;48.748;9.166;2023-08-30T12:17:04;4.22;;;1.50;;
23632;SDS011;11993;48.748;9.166;2023-08-30T12:19:31;2.88;;;1.55;;
23632;SDS011;11993;48.748;9.166;2023-08-30T12:22:02;2.88;;;2.17;;
23632;SDS011;11993;48.748;9.166;2023-08-30T12:24:39;2.58;;;1.90;;
23632;SDS011;11993;48.748;9.166;2023-08-30T12:27:12;4.85;;;2.22;;
23632;SDS011;11993;48.748;9.166;2023-08-30T12:29:38;2.47;;;2.00;;
23632;SDS011;11993;48.748;9.166;2023-08-30T12:32:05;3.63;;;2.00;;
23632;SDS011;11993;48.748;9.166;2023-08-30T12:34:31;3.08;;;2.42;;
23632;SDS011;11993;48.748;9.166;2023-08-30T12:36:57;2.67;;;1.80;;
23632;SDS011;11993;48.748;9.166;2023-08-30T12:39:22;3.28;;;2.30;;
23632;SDS011;11993;48.748;9.166;2023-08-30T12:41:48;2.10;;;1.90;;
23632;SDS011;11993;48.748;9.166;2023-08-30T12:44:14;3.75;;;2.00;;
23632;SDS011;11993;48.748;9.166;2023-08-30T12:46:39;2.13;;;1.85;;
23632;SDS011;11993;48.748;9.166;2023-08-30T12:49:05;3.60;;;1.90;;
23632;SDS011;11993;48.748;9.166;2023-08-30T12:51:30;3.17;;;2.80;;
23632;SDS011;11993;48.748;9.166;2023-08-30T12:53:56;5.72;;;2.28;;
23632;SDS011;11993;48.748;9.166;2023-08-30T12:56:21;3.65;;;2.33;;
23632;SDS011;11993;48.748;9.166;2023-08-30T12:58:47;2.60;;;2.13;;
23632;SDS011;11993;48.748;9.166;2023-08-30T13:01:12;3.33;;;2.47;;
23632;SDS011;11993;48.748;9.166;2023-08-30T13:03:38;3.58;;;2.38;;
23632;SDS011;11993;48.748;9.166;2023-08-30T13:06:04;3.22;;;2.38;;
23632;SDS011;11993;48.748;9.166;2023-08-30T13:08:29;2.67;;;2.13;;
23632;SDS011;11993;48.748;9.166;2023-08-30T13:10:58;2.38;;;1.95;;
23632;SDS011;11993;48.748;9.166;2023-08-30T13:13:24;2.58;;;1.90;;
23632;SDS011;11993;48.748;9.166;2023-08-30T13:15:50;2.53;;;1.80;;
23632;SDS011;11993;48.748;9.166;2023-08-30T13:18:16;2.88;;;2.20;;
23632;SDS011;11993;48.748;9.166;2023-08-30T13:20:42;4.30;;;2.22;;
23632;SDS011;11993;48.748;9.166;2023-08-30T13:23:08;3.55;;;2.30;;
23632;SDS011;11993;48.748;9.166;2023-08-30T13:25:37;3.10;;;2.35;;
23632;SDS011;11993;48.748;9.166;2023-08-30T13:28:03;4.55;;;3.00;;
23632;SDS011;11993;48.748;9.166;2023-08-30T13:30:29;4.72;;;3.30;;
23632;SDS011;11993;48.748;9.166;2023-08-30T13:32:55;5.15;;;2.72;;
23632;SDS011;11993;48.748;9.166;2023-08-30T13:35:20;2.88;;;2.05;;
23632;SDS011;11993;48.748;9.166;2023-08-30T13:37:46;3.92;;;2.45;;
23632;SDS011;11993;48.748;9.166;2023-08-30T13:40:11;3.10;;;2.20;;
23632;SDS011;11993;48.748;9.166;2023-08-30T13:42:37;2.42;;;1.83;;
23632;SDS011;11993;48.748;9.166;2023-08-30T13:45:02;3.67;;;2.08;;
23632;SDS011;11993;48.748;9.166;2023-08-30T13:47:29;2.58;;;2.17;;
23632;SDS011;11993;48.748;9.166;2023-08-30T13:49:54;3.20;;;2.00;;
23632;SDS011;11993;48.748;9.166;2023-08-30T13:52:20;1.85;;;1.48;;
23632;SDS011;11993;48.748;9.166;2023-08-30T13:54:46;4.95;;;1.48;;
23632;SDS011;11993;48.748;9.166;2023-08-30T13:57:11;1.58;;;1.23;;
23632;SDS011;11993;48.748;9.166;2023-08-30T13:59:37;1.98;;;1.40;;
23632;SDS011;11993;48.748;9.166;2023-08-30T14:02:03;2.38;;;1.40;;
23632;SDS011;11993;48.748;9.166;2023-08-30T14:04:29;2.80;;;1.73;;
23632;SDS011;11993;48.748;9.166;2023-08-30T14:06:57;3.28;;;1.30;;
23632;SDS011;11993;48.748;9.166;2023-08-30T14:09:23;2.13;;;1.30;;
23632;SDS011;11993;48.748;9.166;2023-08-30T14:11:49;1.90;;;1.45;;
23632;SDS011;11993;48.748;9.166;2023-08-30T14:14:15;6.53;;;1.40;;
23632;SDS011;11993;48.748;9.166;2023-08-30T14:16:40;3.92;;;2.00;;
23632;SDS011;11993;48.748;9.166;2023-08-30T14:19:06;4.20;;;1.75;;
23632;SDS011;11993;48.748;9.166;2023-08-30T14:21:31;2.35;;;2.10;;
23632;SDS011;11993;48.748;9.166;2023-08-30T14:23:57;3.25;;;1.83;;
23632;SDS011;11993;48.748;9.166;2023-08-30T14:26:23;4.43;;;1.80;;
23632;SDS011;11993;48.748;9.166;2023-08-30T14:28:48;1.83;;;1.60;;
23632;SDS011;11993;48.748;9.166;2023-08-30T14:31:14;2.83;;;1.80;;
23632;SDS011;11993;48.748;9.166;2023-08-30T14:33:42;2.97;;;1.90;;
23632;SDS011;11993;48.748;9.166;2023-08-30T14:36:12;1.80;;;1.63;;
23632;SDS011;11993;48.748;9.166;2023-08-30T14:38:38;3.47;;;2.13;;
23632;SDS011;11993;48.748;9.166;2023-08-30T14:41:05;2.85;;;2.00;;
23632;SDS011;11993;48.748;9.166;2023-08-30T14:43:31;3.63;;;2.50;;
23632;SDS011;11993;48.748;9.166;2023-08-30T14:46:01;6.53;;;2.00;;